Terminal Aerodrome Forecast
Issued by NWS Twin Cities, MN

Home | Current Version | Previous Version | Graphics & Text | Print | Product List | Glossary On
Versions: 1 2 3 4 5 6 7 8 9 10 11 12 13 14 15 16
000
FTUS43 KMPX 191133
TAFEAU
TAF
KEAU 191133Z 1912/2012 VRB05KT P6SM SCT080
     FM191700 25005KT P6SM OVC025
     FM191900 31008KT P6SM OVC020
     FM192100 36012G18KT P6SM OVC022
     FM200100 02009KT P6SM BKN035 OVC100=

USA.gov is the U.S. government's official web portal to all federal, state and local government web resources and services.